createdAt,value
2024-05-09T00:00:35.573Z,10.92
2024-05-09T00:03:08.234Z,10.93
2024-05-09T00:05:36.291Z,10.94
2024-05-09T00:08:03.577Z,10.93
2024-05-09T00:10:36.268Z,10.91
2024-05-09T00:13:06.071Z,10.92
2024-05-09T00:15:33.816Z,10.94
2024-05-09T00:18:00.932Z,10.94
2024-05-09T00:20:36.000Z,10.87
2024-05-09T00:23:07.474Z,10.83
2024-05-09T00:25:34.556Z,10.79
2024-05-09T00:28:01.084Z,10.82
2024-05-09T00:30:33.766Z,10.82
2024-05-09T00:33:03.104Z,10.71
2024-05-09T00:35:30.253Z,10.70
2024-05-09T00:37:56.866Z,10.52
2024-05-09T00:40:31.160Z,10.50
2024-05-09T00:43:08.059Z,10.38
2024-05-09T00:45:35.201Z,10.35
2024-05-09T00:48:08.405Z,10.39
2024-05-09T00:50:38.611Z,10.39
2024-05-09T00:53:07.161Z,10.41
2024-05-09T00:55:38.987Z,10.48
2024-05-09T00:58:07.595Z,10.46
2024-05-09T01:00:39.111Z,10.23
2024-05-09T01:03:12.487Z,10.17
2024-05-09T01:10:17.405Z,10.28
2024-05-09T01:12:51.138Z,10.29
2024-05-09T01:15:17.677Z,10.30
2024-05-09T01:17:44.627Z,10.27
2024-05-09T01:20:19.730Z,10.26
2024-05-09T01:22:51.053Z,10.32
2024-05-09T01:25:17.760Z,10.33
2024-05-09T01:27:44.338Z,10.31
2024-05-09T01:30:17.037Z,10.24
2024-05-09T01:32:47.584Z,10.02
2024-05-09T01:35:14.272Z,9.95
2024-05-09T01:37:41.211Z,9.85
2024-05-09T01:40:12.291Z,9.74
2024-05-09T01:42:41.843Z,9.75
2024-05-09T01:45:09.194Z,9.72
2024-05-09T01:47:36.109Z,9.65
2024-05-09T01:50:05.071Z,9.63
2024-05-09T01:52:38.486Z,9.63
2024-05-09T01:55:07.053Z,9.65
2024-05-09T01:57:35.025Z,9.66
2024-05-09T02:00:01.539Z,9.65
2024-05-09T02:02:28.113Z,9.67
2024-05-09T02:04:54.684Z,9.67
2024-05-09T02:07:21.400Z,9.64
2024-05-09T02:09:51.188Z,9.69
2024-05-09T02:12:18.192Z,9.59
2024-05-09T02:14:44.774Z,9.59
2024-05-09T02:17:11.347Z,9.58
2024-05-09T02:19:38.018Z,9.53
2024-05-09T02:22:04.675Z,9.46
2024-05-09T02:24:31.182Z,9.48
2024-05-09T02:26:57.690Z,9.53
2024-05-09T02:29:24.261Z,9.45
2024-05-09T02:31:50.876Z,9.43
2024-05-09T02:34:17.481Z,9.39
2024-05-09T02:36:44.071Z,9.30
2024-05-09T02:39:10.579Z,9.34
2024-05-09T02:41:38.004Z,9.35
2024-05-09T02:44:04.701Z,9.36
2024-05-09T02:46:31.254Z,9.39
2024-05-09T02:48:57.913Z,9.39
2024-05-09T02:51:24.546Z,9.36
2024-05-09T02:53:51.450Z,9.31
2024-05-09T02:56:17.982Z,9.21
2024-05-09T02:58:44.525Z,9.19
2024-05-09T03:01:11.072Z,9.24
2024-05-09T03:03:37.844Z,9.18
2024-05-09T03:06:05.146Z,9.16
2024-05-09T03:08:32.242Z,9.17
2024-05-09T03:10:58.910Z,9.20
2024-05-09T03:13:25.448Z,9.22
2024-05-09T03:15:51.956Z,9.21
2024-05-09T03:18:18.557Z,9.22
2024-05-09T03:20:45.220Z,9.20
2024-05-09T03:23:11.791Z,9.20
2024-05-09T03:25:38.939Z,9.22
2024-05-09T03:28:05.983Z,9.15
2024-05-09T03:30:40.021Z,9.13
2024-05-09T03:33:15.435Z,9.05
2024-05-09T03:35:46.349Z,9.03
2024-05-09T03:38:13.576Z,9.04
2024-05-09T03:40:47.262Z,8.92
2024-05-09T03:43:14.516Z,8.92
2024-05-09T03:45:42.702Z,8.92
2024-05-09T03:48:09.415Z,8.74
2024-05-09T03:50:37.315Z,8.70
2024-05-09T03:53:04.714Z,8.69
2024-05-09T03:55:31.471Z,8.70
2024-05-09T03:57:58.243Z,8.76
2024-05-09T04:00:31.500Z,8.78
2024-05-09T04:03:10.242Z,8.78
2024-05-09T04:05:44.190Z,8.82
2024-05-09T04:08:11.633Z,8.90
2024-05-09T04:10:38.362Z,8.96
2024-05-09T04:13:05.137Z,8.94
2024-05-09T04:15:32.301Z,8.98
2024-05-09T04:17:59.325Z,9.04
2024-05-09T04:22:56.481Z,9.11
2024-05-09T04:25:23.001Z,9.10
2024-05-09T04:27:49.540Z,9.17
2024-05-09T04:30:25.401Z,9.27
2024-05-09T04:32:57.663Z,9.33
2024-05-09T04:35:24.457Z,9.31
2024-05-09T04:37:51.114Z,9.38
2024-05-09T04:40:24.418Z,9.41
2024-05-09T04:42:58.349Z,9.41
2024-05-09T04:45:24.963Z,9.50
2024-05-09T04:47:51.808Z,9.45
2024-05-09T04:50:28.912Z,9.47
2024-05-09T04:53:00.583Z,9.65
2024-05-09T04:55:27.131Z,9.66
2024-05-09T04:57:53.653Z,9.71
2024-05-09T05:00:28.486Z,9.80
2024-05-09T05:03:05.697Z,9.87
2024-05-09T05:05:32.595Z,9.92
2024-05-09T05:07:59.784Z,9.88
2024-05-09T05:10:33.754Z,9.85
2024-05-09T05:13:17.192Z,9.88
2024-05-09T05:15:45.143Z,9.74
2024-05-09T05:18:11.990Z,9.81
2024-05-09T05:20:38.696Z,9.69
2024-05-09T05:23:08.633Z,9.65
2024-05-09T05:25:35.207Z,9.74
2024-05-09T05:28:01.703Z,9.66
2024-05-09T05:30:32.920Z,9.72
2024-05-09T05:33:01.487Z,9.80
2024-05-09T05:35:28.345Z,9.63
2024-05-09T05:37:55.009Z,9.68
2024-05-09T05:40:28.621Z,9.80
2024-05-09T05:43:03.236Z,9.75
2024-05-09T05:45:29.822Z,9.94
2024-05-09T05:47:56.752Z,10.04
2024-05-09T05:50:28.093Z,10.06
2024-05-09T05:53:01.971Z,10.02
2024-05-09T05:55:28.545Z,10.11
2024-05-09T05:57:55.039Z,9.93
2024-05-09T06:00:29.410Z,10.08
2024-05-09T06:03:02.317Z,9.99
2024-05-09T06:05:29.158Z,10.01
2024-05-09T06:07:55.817Z,10.06
2024-05-09T06:10:26.322Z,10.13
2024-05-09T06:13:01.346Z,10.28
2024-05-09T06:15:27.867Z,10.29
2024-05-09T06:17:54.642Z,10.29
2024-05-09T06:20:31.238Z,10.42
2024-05-09T06:23:03.189Z,10.45
2024-05-09T06:25:29.913Z,10.49
2024-05-09T06:27:56.466Z,10.68
2024-05-09T06:30:30.915Z,10.83
2024-05-09T06:33:05.166Z,10.96
2024-05-09T06:35:32.638Z,11.04
2024-05-09T06:37:59.442Z,11.14
2024-05-09T06:40:34.443Z,11.27
2024-05-09T06:43:04.849Z,11.40
2024-05-09T06:45:31.393Z,11.50
2024-05-09T06:47:58.142Z,11.74
2024-05-09T06:50:28.303Z,11.88
2024-05-09T06:52:58.386Z,12.09
2024-05-09T06:55:24.969Z,12.35
2024-05-09T06:57:51.504Z,12.56
2024-05-09T07:00:26.870Z,12.79
2024-05-09T07:02:59.004Z,13.05
2024-05-09T07:05:29.559Z,13.33
2024-05-09T07:07:56.186Z,13.32
2024-05-09T07:10:28.910Z,13.36
2024-05-09T07:13:00.542Z,13.87
2024-05-09T07:15:27.085Z,14.07
2024-05-09T07:17:53.815Z,14.35
2024-05-09T07:20:31.647Z,14.46
2024-05-09T07:23:03.230Z,14.48
2024-05-09T07:25:30.331Z,15.16
2024-05-09T07:27:57.038Z,15.76
2024-05-09T07:30:32.512Z,16.39
2024-05-09T07:33:01.333Z,16.95
2024-05-09T07:35:28.943Z,17.49
2024-05-09T07:37:55.656Z,17.94
2024-05-09T07:40:32.315Z,18.07
2024-05-09T07:43:07.240Z,18.35
2024-05-09T07:52:23.332Z,18.71
2024-05-09T07:53:38.724Z,18.81
2024-05-09T07:56:09.100Z,18.36
2024-05-09T07:58:36.936Z,18.75
2024-05-09T08:01:03.874Z,18.56
2024-05-09T08:03:31.566Z,18.26
2024-05-09T08:05:58.192Z,18.94
2024-05-09T08:08:24.752Z,18.12
2024-05-09T08:10:51.405Z,18.34
2024-05-09T08:13:17.985Z,18.34
2024-05-09T08:15:44.803Z,19.07
2024-05-09T08:18:11.671Z,19.01
2024-05-09T08:20:39.282Z,18.71
2024-05-09T08:23:06.106Z,18.95
2024-05-09T08:25:32.956Z,20.03
2024-05-09T08:27:59.588Z,20.70
2024-05-09T08:30:33.388Z,20.97
2024-05-09T08:33:04.503Z,21.35
2024-05-09T08:35:32.254Z,21.56
2024-05-09T08:37:59.289Z,21.62
2024-05-09T08:40:33.410Z,21.33
2024-05-09T08:43:06.389Z,21.95
2024-05-09T08:45:35.419Z,22.31
2024-05-09T08:48:07.667Z,22.28
2024-05-09T08:50:39.140Z,21.67
2024-05-09T08:53:08.064Z,21.64
2024-05-09T08:55:37.392Z,21.02
2024-05-09T08:58:07.524Z,21.25
2024-05-09T09:00:37.429Z,22.30
2024-05-09T09:03:06.773Z,22.49
2024-05-09T09:05:38.290Z,22.73
2024-05-09T09:08:07.646Z,22.85
2024-05-09T09:10:35.183Z,23.07
2024-05-09T09:13:04.226Z,23.20
2024-05-09T09:15:31.117Z,23.62
2024-05-09T09:17:59.186Z,23.39
2024-05-09T09:20:36.021Z,23.92
2024-05-09T09:23:04.325Z,24.14
2024-05-09T09:25:31.302Z,24.66
2024-05-09T09:27:58.739Z,24.51
2024-05-09T09:30:35.121Z,24.81
2024-05-09T09:33:04.871Z,24.98
2024-05-09T09:35:31.629Z,25.51
2024-05-09T09:38:02.033Z,25.72
2024-05-09T09:40:40.862Z,26.05
2024-05-09T09:43:17.662Z,25.14
2024-05-09T09:45:46.378Z,24.99
2024-05-09T09:48:14.768Z,25.94
2024-05-09T09:50:42.183Z,23.80
2024-05-09T09:53:09.914Z,22.02
2024-05-09T09:55:37.662Z,21.34
2024-05-09T09:58:05.938Z,22.69
2024-05-09T10:00:34.255Z,24.20
2024-05-09T10:03:01.941Z,24.83
2024-05-09T10:05:30.020Z,26.03
2024-05-09T10:07:58.524Z,25.26
2024-05-09T10:10:32.184Z,25.47
2024-05-09T10:13:07.122Z,24.64
2024-05-09T10:16:10.578Z,24.53
2024-05-09T10:18:38.715Z,25.77
2024-05-09T10:21:21.544Z,24.81
2024-05-09T10:23:59.734Z,25.84
2024-05-09T10:26:37.391Z,26.02
2024-05-09T10:29:16.509Z,26.31
2024-05-09T10:31:44.583Z,26.28
2024-05-09T10:34:23.944Z,26.26
2024-05-09T10:36:54.526Z,26.17
2024-05-09T10:39:21.777Z,26.12
2024-05-09T10:41:49.575Z,25.45
2024-05-09T10:44:17.015Z,25.50
2024-05-09T10:46:45.113Z,25.27
2024-05-09T10:49:14.954Z,25.25
2024-05-09T10:51:44.526Z,25.53
2024-05-09T10:54:11.364Z,24.99
2024-05-09T10:56:37.861Z,24.70
2024-05-09T10:59:04.909Z,24.18
2024-05-09T11:01:31.743Z,23.37
2024-05-09T11:03:58.621Z,23.09
2024-05-09T11:06:25.943Z,23.06
2024-05-09T11:08:52.822Z,22.81
2024-05-09T11:11:19.942Z,22.70
2024-05-09T11:13:46.499Z,22.54
2024-05-09T11:16:19.707Z,22.52
2024-05-09T11:18:57.480Z,22.39
2024-05-09T11:21:24.639Z,22.25
2024-05-09T11:23:51.682Z,22.10
2024-05-09T11:26:19.546Z,22.02
2024-05-09T11:28:46.482Z,22.18
2024-05-09T11:31:13.105Z,22.21
2024-05-09T11:33:42.239Z,22.08
2024-05-09T11:36:11.091Z,22.14
2024-05-09T11:38:37.618Z,22.28
2024-05-09T11:41:05.334Z,22.20
2024-05-09T11:43:32.183Z,22.33
2024-05-09T11:45:59.250Z,22.42
2024-05-09T11:48:26.540Z,22.37
2024-05-09T11:50:54.429Z,22.24
2024-05-09T11:53:20.955Z,21.96
2024-05-09T11:55:47.432Z,21.58
2024-05-09T11:58:17.494Z,21.28
2024-05-09T12:00:45.462Z,20.91
2024-05-09T12:03:12.320Z,20.91
2024-05-09T12:05:38.955Z,20.91
2024-05-09T12:08:06.210Z,20.76
2024-05-09T12:10:35.524Z,20.76
2024-05-09T12:13:05.370Z,20.85
2024-05-09T12:15:33.959Z,20.75
2024-05-09T12:18:03.395Z,20.38
2024-05-09T12:20:37.418Z,18.28
2024-05-09T12:23:06.766Z,18.14
2024-05-09T12:25:33.434Z,18.47
2024-05-09T12:28:00.590Z,18.69
2024-05-09T12:30:36.127Z,19.01
2024-05-09T12:33:08.090Z,19.24
2024-05-09T12:35:34.837Z,19.40
2024-05-09T12:38:01.479Z,19.42
2024-05-09T12:40:35.560Z,19.47
2024-05-09T12:43:08.072Z,19.51
2024-05-09T12:45:35.835Z,19.45
2024-05-09T12:48:03.241Z,18.78
2024-05-09T12:50:33.181Z,18.87
2024-05-09T12:53:02.179Z,18.10
2024-05-09T12:55:33.900Z,17.47
2024-05-09T12:58:07.691Z,17.85
2024-05-09T13:00:34.847Z,17.73
2024-05-09T13:03:01.674Z,17.95
2024-05-09T13:05:28.832Z,18.32
2024-05-09T13:07:56.445Z,18.18
2024-05-09T13:10:29.272Z,18.00
2024-05-09T13:12:59.581Z,18.28
2024-05-09T13:15:26.436Z,18.42
2024-05-09T13:17:53.133Z,18.67
2024-05-09T13:20:28.940Z,18.81
2024-05-09T13:23:02.021Z,19.01
2024-05-09T13:25:28.638Z,19.11
2024-05-09T13:27:55.893Z,19.21
2024-05-09T13:30:29.609Z,19.26
2024-05-09T13:33:05.613Z,19.36
2024-05-09T13:35:34.235Z,19.39
2024-05-09T13:38:02.236Z,19.32
2024-05-09T13:40:33.690Z,18.98
2024-05-09T13:43:02.743Z,19.02
2024-05-09T13:45:29.424Z,19.23
2024-05-09T13:47:56.518Z,19.26
2024-05-09T13:50:31.329Z,19.28
2024-05-09T13:53:02.299Z,18.90
2024-05-09T13:55:28.852Z,18.87
2024-05-09T13:57:55.816Z,18.80
2024-05-09T14:00:32.286Z,18.74
2024-05-09T14:03:09.470Z,18.98
2024-05-09T14:05:36.356Z,19.14
2024-05-09T14:08:03.556Z,19.24
2024-05-09T14:10:31.927Z,19.27
2024-05-09T14:12:59.703Z,19.27
2024-05-09T14:15:26.481Z,19.04
2024-05-09T14:17:53.464Z,19.06
2024-05-09T14:20:29.913Z,19.15
2024-05-09T14:22:58.890Z,19.24
2024-05-09T14:25:28.485Z,19.28
2024-05-09T14:27:55.982Z,19.34
2024-05-09T14:30:30.459Z,19.31
2024-05-09T14:33:03.194Z,19.34
2024-05-09T14:35:29.880Z,19.36
2024-05-09T14:37:56.469Z,19.42
2024-05-09T14:40:35.901Z,19.45
2024-05-09T14:43:09.246Z,19.30
2024-05-09T14:45:35.956Z,19.33
2024-05-09T14:48:03.557Z,19.31
2024-05-09T14:50:36.071Z,19.33
2024-05-09T14:53:06.510Z,19.36
2024-05-09T14:55:35.905Z,19.28
2024-05-09T14:58:03.447Z,19.28
2024-05-09T15:00:35.607Z,19.25
2024-05-09T15:03:03.764Z,19.16
2024-05-09T15:05:30.626Z,19.21
2024-05-09T15:07:58.260Z,19.19
2024-05-09T15:10:33.704Z,19.20
2024-05-09T15:13:03.376Z,19.20
2024-05-09T15:15:30.155Z,19.17
2024-05-09T15:17:56.948Z,19.15
2024-05-09T15:20:31.206Z,19.12
2024-05-09T15:23:02.415Z,18.99
2024-05-09T15:25:29.233Z,18.79
2024-05-09T15:27:56.085Z,18.95
2024-05-09T15:32:52.714Z,19.00
2024-05-09T15:35:19.739Z,18.80
2024-05-09T15:37:48.288Z,18.78
2024-05-09T15:40:18.472Z,18.87
2024-05-09T15:42:52.044Z,18.93
2024-05-09T15:45:18.574Z,18.99
2024-05-09T15:47:45.322Z,19.02
2024-05-09T15:50:20.067Z,19.02
2024-05-09T15:52:50.317Z,18.99
2024-05-09T15:55:17.348Z,18.96
2024-05-09T15:57:46.089Z,18.98
2024-05-09T16:00:24.390Z,18.95
2024-05-09T16:02:55.641Z,18.92
2024-05-09T16:05:22.670Z,18.87
2024-05-09T16:07:49.356Z,18.85
2024-05-09T16:10:22.732Z,18.92
2024-05-09T16:12:52.326Z,18.88
2024-05-09T16:15:18.900Z,18.85
2024-05-09T16:17:45.901Z,18.82
2024-05-09T16:20:18.120Z,18.80
2024-05-09T16:22:48.438Z,18.78
2024-05-09T16:25:15.008Z,18.76
2024-05-09T16:27:41.556Z,18.75
2024-05-09T16:30:11.988Z,18.77
2024-05-09T16:32:43.989Z,18.77
2024-05-09T16:35:10.967Z,18.76
2024-05-09T16:37:37.515Z,18.74
2024-05-09T16:40:07.553Z,18.75
2024-05-09T16:42:34.344Z,18.76
2024-05-09T16:45:00.908Z,18.76
2024-05-09T16:47:27.545Z,18.71
2024-05-09T16:49:54.113Z,18.70
2024-05-09T16:52:20.676Z,18.72
2024-05-09T16:54:47.252Z,18.73
2024-05-09T16:57:13.848Z,18.69
2024-05-09T16:59:40.357Z,18.64
2024-05-09T17:02:07.118Z,18.57
2024-05-09T17:04:33.818Z,18.60
2024-05-09T17:07:00.618Z,18.55
2024-05-09T17:09:27.182Z,18.55
2024-05-09T17:11:54.151Z,18.53
2024-05-09T17:14:20.668Z,18.47
2024-05-09T17:16:47.807Z,18.45
2024-05-09T17:19:14.576Z,18.49
2024-05-09T17:21:41.254Z,18.49
2024-05-09T17:24:07.773Z,18.45
2024-05-09T17:26:34.356Z,18.41
2024-05-09T17:29:01.734Z,18.35
2024-05-09T17:31:28.334Z,18.36
2024-05-09T17:33:55.327Z,18.33
2024-05-09T17:36:22.054Z,18.27
2024-05-09T17:38:48.596Z,18.25
2024-05-09T17:41:16.628Z,18.26
2024-05-09T17:43:43.131Z,18.16
2024-05-09T17:46:10.064Z,18.10
2024-05-09T17:48:36.831Z,18.05
2024-05-09T17:51:03.598Z,18.00
2024-05-09T17:53:30.101Z,17.92
2024-05-09T17:55:56.683Z,17.87
2024-05-09T17:58:23.408Z,17.84
2024-05-09T18:00:50.050Z,17.81
2024-05-09T18:03:16.739Z,17.81
2024-05-09T18:05:44.528Z,17.74
2024-05-09T18:08:11.818Z,17.68
2024-05-09T18:10:40.724Z,17.64
2024-05-09T18:13:09.242Z,17.61
2024-05-09T18:15:36.843Z,17.61
2024-05-09T18:18:04.428Z,17.57
2024-05-09T18:20:40.849Z,17.51
2024-05-09T18:23:11.430Z,17.45
2024-05-09T18:25:38.500Z,17.44
2024-05-09T18:28:06.480Z,17.38
2024-05-09T18:30:36.040Z,17.30
2024-05-09T18:33:05.907Z,17.23
2024-05-09T18:35:33.842Z,17.18
2024-05-09T18:38:00.578Z,17.12
2024-05-09T18:40:33.295Z,17.06
2024-05-09T18:43:05.165Z,16.97
2024-05-09T18:45:32.926Z,16.90
2024-05-09T18:47:59.735Z,16.85
2024-05-09T18:50:35.451Z,16.80
2024-05-09T18:53:10.339Z,16.72
2024-05-09T18:55:37.736Z,16.64
2024-05-09T18:58:05.627Z,16.57
2024-05-09T19:00:36.300Z,16.50
2024-05-09T19:03:11.085Z,16.44
2024-05-09T19:05:40.616Z,16.36
2024-05-09T19:08:08.333Z,16.33
2024-05-09T19:10:37.385Z,16.26
2024-05-09T19:13:09.220Z,16.19
2024-05-09T19:15:39.806Z,16.12
2024-05-09T19:18:07.267Z,16.07
2024-05-09T19:20:35.757Z,16.01
2024-05-09T19:23:04.646Z,15.97
2024-05-09T19:25:31.966Z,15.92
2024-05-09T19:27:58.613Z,15.88
2024-05-09T19:30:34.646Z,15.85
2024-05-09T19:33:06.726Z,15.80
2024-05-09T19:35:33.367Z,15.77
2024-05-09T19:38:00.068Z,15.73
2024-05-09T19:40:31.514Z,15.69
2024-05-09T19:43:01.179Z,15.66
2024-05-09T19:45:28.169Z,15.60
2024-05-09T19:47:55.402Z,15.58
2024-05-09T19:50:30.804Z,15.54
2024-05-09T19:53:03.747Z,15.49
2024-05-09T19:55:30.233Z,15.44
2024-05-09T19:57:57.175Z,15.40
2024-05-09T20:00:32.448Z,15.39
2024-05-09T20:03:02.562Z,15.38
2024-05-09T20:05:31.092Z,15.38
2024-05-09T20:07:58.011Z,15.36
2024-05-09T20:10:29.895Z,15.33
2024-05-09T20:13:00.049Z,15.33
2024-05-09T20:15:26.752Z,15.30
2024-05-09T20:17:53.772Z,15.28
2024-05-09T20:20:28.584Z,15.29
2024-05-09T20:23:03.006Z,15.27
2024-05-09T20:25:29.658Z,15.29
2024-05-09T20:27:56.190Z,15.26
2024-05-09T20:30:30.437Z,15.26
2024-05-09T20:32:59.400Z,15.18
2024-05-09T20:35:26.740Z,15.16
2024-05-09T20:37:53.493Z,15.12
2024-05-09T20:40:28.286Z,15.10
2024-05-09T20:42:58.782Z,15.09
2024-05-09T20:45:25.905Z,15.00
2024-05-09T20:47:52.592Z,14.93
2024-05-09T20:50:28.124Z,14.89
2024-05-09T20:53:02.588Z,14.84
2024-05-09T20:55:30.032Z,14.80
2024-05-09T20:57:56.970Z,14.80
2024-05-09T21:00:30.304Z,14.78
2024-05-09T21:03:05.843Z,14.73
2024-05-09T21:05:33.074Z,14.67
2024-05-09T21:07:59.815Z,14.67
2024-05-09T21:10:27.409Z,14.65
2024-05-09T21:12:57.924Z,14.63
2024-05-09T21:15:24.518Z,14.67
2024-05-09T21:17:51.075Z,14.67
2024-05-09T21:20:23.829Z,14.66
2024-05-09T21:22:55.834Z,14.63
2024-05-09T21:25:22.948Z,14.63
2024-05-09T21:27:49.561Z,14.59
2024-05-09T21:30:22.849Z,14.59
2024-05-09T21:32:58.411Z,14.56
2024-05-09T21:35:25.033Z,14.55
2024-05-09T21:37:51.599Z,14.50
2024-05-09T21:40:26.996Z,14.50
2024-05-09T21:43:00.110Z,14.47
2024-05-09T21:45:26.685Z,14.45
2024-05-09T21:47:53.479Z,14.47
2024-05-09T21:50:27.517Z,14.48
2024-05-09T21:52:58.944Z,14.49
2024-05-09T21:55:26.131Z,14.49
2024-05-09T21:57:52.719Z,14.47
2024-05-09T22:00:28.802Z,14.46
2024-05-09T22:03:02.298Z,14.43
2024-05-09T22:05:29.181Z,14.43
2024-05-09T22:07:55.989Z,14.40
2024-05-09T22:10:26.857Z,14.38
2024-05-09T22:13:00.155Z,14.37
2024-05-09T22:15:27.085Z,14.29
2024-05-09T22:17:57.384Z,14.28
2024-05-09T22:20:33.514Z,14.29
2024-05-09T22:23:04.218Z,14.25
2024-05-09T22:25:31.945Z,14.22
2024-05-09T22:27:59.189Z,14.18
2024-05-09T22:30:34.234Z,14.17
2024-05-09T22:33:05.204Z,14.16
2024-05-09T22:35:31.941Z,14.13
2024-05-09T22:37:58.493Z,14.13
2024-05-09T22:40:37.751Z,14.12
2024-05-09T22:43:12.330Z,14.09
2024-05-09T22:45:39.152Z,14.08
2024-05-09T22:48:06.251Z,14.09
2024-05-09T22:50:33.842Z,14.07
2024-05-09T22:53:00.899Z,14.01
2024-05-09T22:55:27.537Z,13.98
2024-05-09T22:57:54.083Z,13.98
2024-05-09T23:00:29.219Z,13.97
2024-05-09T23:03:02.934Z,13.91
2024-05-09T23:05:30.681Z,13.90
2024-05-09T23:07:57.264Z,13.87
2024-05-09T23:10:31.760Z,13.86
2024-05-09T23:13:03.107Z,13.87
2024-05-09T23:15:29.927Z,13.83
2024-05-09T23:17:57.335Z,13.83
2024-05-09T23:20:33.438Z,13.77
2024-05-09T23:23:05.192Z,13.73
2024-05-09T23:25:31.763Z,13.69
2024-05-09T23:27:58.575Z,13.65
2024-05-09T23:30:34.231Z,13.60
2024-05-09T23:33:05.780Z,13.60
2024-05-09T23:35:32.496Z,13.59
2024-05-09T23:37:59.623Z,13.59
2024-05-09T23:40:36.992Z,13.58
2024-05-09T23:43:06.974Z,13.61
2024-05-09T23:45:33.820Z,13.59
2024-05-09T23:48:01.118Z,13.57
2024-05-09T23:50:34.378Z,13.53
2024-05-09T23:53:04.240Z,13.51
2024-05-09T23:55:31.819Z,13.50
2024-05-09T23:57:58.755Z,13.48
